Colcord, West Virginia
Current Conditions -  °F | °C
As of 10:58 PM on Wednesday 22 Oct 2014 (Local Time) from KBKW Reporting Station
Overcast Overcast  
Wind Chill:   Ceiling: 1000
Heat Index:   Visibility: 8mi
Dew Point:   Wind: 8mph
Humidity: 86%   Direction: 330°NNW
Pressure: 30.18"   Gusts: NA
Location:  37.95°N, 81.44°W
Report Text: KBKW 230258Z AUTO 33007KT 8SM BKN010 OVC015 06/04 A3018 RMK AO2 CIG 007V014 T00610039 TSNO
Loading
Personal Weather Stations






























Interactive Weather Map
Tropical Storm Tracking
New forecast layout! Learn more

10-Day Weather Forecast

Advertisements
Track Severe Weather on mobile